createdAt,value
2023-02-18T00:01:39.980Z,8.70
2023-02-18T00:04:08.198Z,8.70
2023-02-18T00:06:36.721Z,8.70
2023-02-18T00:09:05.071Z,8.60
2023-02-18T00:11:35.090Z,8.60
2023-02-18T00:14:04.921Z,8.58
2023-02-18T00:16:33.098Z,8.50
2023-02-18T00:19:04.406Z,8.40
2023-02-18T00:21:33.999Z,8.40
2023-02-18T00:24:01.894Z,8.30
2023-02-18T00:26:29.853Z,8.30
2023-02-18T00:28:57.806Z,8.30
2023-02-18T00:31:30.706Z,8.30
2023-02-18T00:34:00.288Z,8.30
2023-02-18T00:36:29.169Z,8.30
2023-02-18T00:38:59.950Z,8.30
2023-02-18T00:41:28.646Z,8.30
2023-02-18T00:43:56.684Z,8.26
2023-02-18T00:46:25.130Z,8.24
2023-02-18T00:48:55.071Z,8.20
2023-02-18T00:51:23.613Z,8.20
2023-02-18T00:53:51.460Z,8.20
2023-02-18T00:56:20.698Z,8.10
2023-02-18T00:58:50.288Z,8.00
2023-02-18T01:01:18.488Z,7.90
2023-02-18T01:03:46.546Z,7.90
2023-02-18T01:06:15.532Z,7.80
2023-02-18T01:08:43.672Z,7.80
2023-02-18T01:11:12.081Z,7.80
2023-02-18T01:13:40.846Z,7.76
2023-02-18T01:16:09.978Z,7.70
2023-02-18T01:18:39.167Z,7.70
2023-02-18T01:21:08.778Z,7.60
2023-02-18T01:23:38.138Z,7.50
2023-02-18T01:26:06.858Z,7.50
2023-02-18T01:28:35.239Z,7.40
2023-02-18T01:31:09.501Z,7.40
2023-02-18T01:33:37.561Z,7.30
2023-02-18T01:36:07.267Z,7.30
2023-02-18T01:38:35.876Z,7.30
2023-02-18T01:41:04.008Z,7.20
2023-02-18T01:43:32.161Z,7.20
2023-02-18T01:46:06.491Z,7.20
2023-02-18T01:48:54.730Z,7.10
2023-02-18T01:51:32.370Z,7.10
2023-02-18T01:54:08.267Z,7.00
2023-02-18T01:57:02.321Z,7.00
2023-02-18T01:59:39.257Z,7.00
2023-02-18T02:02:09.564Z,6.90
2023-02-18T02:04:37.767Z,6.90
2023-02-18T02:07:05.714Z,6.88
2023-02-18T02:09:33.756Z,6.86
2023-02-18T02:12:28.687Z,6.80
2023-02-18T02:15:30.117Z,6.80
2023-02-18T02:18:39.737Z,6.70
2023-02-18T02:21:38.587Z,6.70
2023-02-18T02:24:12.883Z,6.70
2023-02-18T02:27:22.116Z,6.70
2023-02-18T02:30:30.820Z,6.60
2023-02-18T02:33:18.282Z,6.60
2023-02-18T02:36:25.041Z,6.60
2023-02-18T02:39:12.045Z,6.50
2023-02-18T02:42:09.945Z,6.50
2023-02-18T02:44:46.983Z,6.40
2023-02-18T02:47:51.921Z,6.40
2023-02-18T02:50:44.511Z,6.40
2023-02-18T02:53:22.297Z,6.36
2023-02-18T02:55:50.538Z,6.30
2023-02-18T02:58:21.106Z,6.30
2023-02-18T03:01:08.022Z,6.30
2023-02-18T03:04:27.519Z,6.22
2023-02-18T03:07:26.000Z,6.20
2023-02-18T03:10:12.660Z,6.20
2023-02-18T03:12:43.553Z,6.20
2023-02-18T03:15:28.506Z,6.20
2023-02-18T03:18:03.141Z,6.20
2023-02-18T03:20:41.738Z,6.16
2023-02-18T03:23:12.264Z,6.10
2023-02-18T03:25:40.155Z,6.10
2023-02-18T03:28:15.601Z,6.10
2023-02-18T03:30:46.815Z,6.10
2023-02-18T03:33:18.615Z,6.10
2023-02-18T03:35:46.571Z,6.10
2023-02-18T03:38:38.396Z,6.10
2023-02-18T03:41:06.616Z,6.06
2023-02-18T03:43:34.812Z,6.06
2023-02-18T03:46:03.255Z,6.10
2023-02-18T03:48:31.546Z,6.10
2023-02-18T03:50:59.560Z,6.00
2023-02-18T03:53:28.032Z,6.00
2023-02-18T03:55:56.204Z,6.00
2023-02-18T03:58:24.039Z,6.00
2023-02-18T04:00:52.096Z,6.00
2023-02-18T04:03:19.916Z,5.90
2023-02-18T04:05:48.236Z,5.90
2023-02-18T04:08:15.991Z,5.90
2023-02-18T04:10:44.054Z,5.90
2023-02-18T04:13:12.867Z,5.80
2023-02-18T04:15:41.091Z,5.80
2023-02-18T04:18:09.291Z,5.70
2023-02-18T04:20:37.689Z,5.60
2023-02-18T04:23:05.724Z,5.60
2023-02-18T04:25:33.858Z,5.60
2023-02-18T04:28:01.570Z,5.60
2023-02-18T04:30:29.580Z,5.60
2023-02-18T04:32:57.632Z,5.60
2023-02-18T04:35:25.560Z,5.60
2023-02-18T04:37:53.613Z,5.60
2023-02-18T04:40:21.752Z,5.60
2023-02-18T04:42:49.891Z,5.56
2023-02-18T04:45:17.889Z,5.50
2023-02-18T04:47:45.956Z,5.50
2023-02-18T04:50:13.956Z,5.50
2023-02-18T04:52:41.806Z,5.50
2023-02-18T04:55:10.212Z,5.50
2023-02-18T04:57:38.098Z,5.48
2023-02-18T05:00:09.512Z,5.50
2023-02-18T05:02:37.324Z,5.50
2023-02-18T05:05:05.457Z,5.50
2023-02-18T05:07:34.212Z,5.50
2023-02-18T05:10:02.494Z,5.50
2023-02-18T05:12:30.787Z,5.52
2023-02-18T05:14:59.245Z,5.60
2023-02-18T05:17:27.157Z,5.60
2023-02-18T05:19:55.185Z,5.58
2023-02-18T05:22:23.144Z,5.50
2023-02-18T05:24:51.530Z,5.50
2023-02-18T05:27:19.706Z,5.50
2023-02-18T05:29:47.672Z,5.48
2023-02-18T05:32:15.799Z,5.46
2023-02-18T05:34:44.031Z,5.50
2023-02-18T05:37:13.720Z,5.50
2023-02-18T05:39:42.067Z,5.50
2023-02-18T05:42:10.245Z,5.50
2023-02-18T05:44:38.377Z,5.48
2023-02-18T05:47:11.363Z,5.46
2023-02-18T05:49:40.906Z,5.44
2023-02-18T05:52:09.643Z,5.40
2023-02-18T05:54:37.725Z,5.40
2023-02-18T05:57:05.654Z,5.40
2023-02-18T05:59:33.984Z,5.40
2023-02-18T06:02:01.895Z,5.40
2023-02-18T06:04:29.798Z,5.40
2023-02-18T06:06:57.945Z,5.40
2023-02-18T06:09:25.770Z,5.40
2023-02-18T06:11:53.993Z,5.40
2023-02-18T06:14:21.867Z,5.40
2023-02-18T06:16:49.994Z,5.40
2023-02-18T06:19:17.794Z,5.40
2023-02-18T06:21:45.978Z,5.30
2023-02-18T06:24:13.780Z,5.32
2023-02-18T06:26:41.596Z,5.32
2023-02-18T06:29:09.721Z,5.30
2023-02-18T06:31:37.867Z,5.30
2023-02-18T06:34:05.811Z,5.30
2023-02-18T06:36:34.018Z,5.30
2023-02-18T06:39:04.806Z,5.30
2023-02-18T06:41:33.305Z,5.32
2023-02-18T06:44:01.404Z,5.40
2023-02-18T06:46:29.186Z,5.40
2023-02-18T06:48:57.295Z,5.50
2023-02-18T06:51:25.491Z,5.60
2023-02-18T06:53:53.857Z,5.60
2023-02-18T06:56:21.891Z,5.64
2023-02-18T06:58:50.127Z,5.70
2023-02-18T07:01:18.020Z,5.70
2023-02-18T07:03:47.834Z,5.70
2023-02-18T07:06:17.381Z,5.70
2023-02-18T07:08:45.552Z,5.80
2023-02-18T07:11:13.450Z,5.80
2023-02-18T07:13:41.253Z,5.80
2023-02-18T07:16:09.377Z,5.90
2023-02-18T07:18:37.662Z,5.90
2023-02-18T07:21:05.903Z,5.92
2023-02-18T07:23:33.800Z,6.00
2023-02-18T07:26:11.539Z,6.00
2023-02-18T07:28:39.793Z,6.00
2023-02-18T07:31:08.319Z,6.00
2023-02-18T07:33:37.313Z,6.06
2023-02-18T07:36:06.837Z,6.10
2023-02-18T07:38:34.994Z,6.04
2023-02-18T07:41:03.778Z,6.00
2023-02-18T07:43:31.953Z,6.00
2023-02-18T07:45:59.905Z,6.00
2023-02-18T07:48:27.686Z,6.04
2023-02-18T07:50:56.015Z,6.10
2023-02-18T07:53:24.150Z,6.10
2023-02-18T07:55:52.248Z,6.18
2023-02-18T07:58:25.899Z,6.20
2023-02-18T08:00:55.087Z,6.30
2023-02-18T08:03:25.964Z,6.42
2023-02-18T08:05:54.703Z,6.44
2023-02-18T08:08:25.663Z,6.50
2023-02-18T08:10:55.676Z,6.60
2023-02-18T08:13:23.633Z,6.60
2023-02-18T08:15:51.625Z,6.70
2023-02-18T08:18:22.162Z,6.80
2023-02-18T08:20:51.843Z,6.70
2023-02-18T08:23:21.056Z,6.66
2023-02-18T08:25:50.677Z,6.60
2023-02-18T08:28:20.767Z,6.50
2023-02-18T08:30:50.216Z,6.60
2023-02-18T08:33:18.477Z,6.58
2023-02-18T08:35:47.058Z,6.60
2023-02-18T08:38:15.207Z,6.60
2023-02-18T08:40:43.835Z,6.60
2023-02-18T08:43:11.867Z,6.70
2023-02-18T08:45:40.441Z,6.70
2023-02-18T08:48:16.783Z,6.72
2023-02-18T08:50:48.618Z,6.80
2023-02-18T08:53:17.256Z,6.80
2023-02-18T08:55:45.161Z,6.84
2023-02-18T08:58:13.166Z,6.90
2023-02-18T09:00:42.163Z,6.84
2023-02-18T09:03:14.744Z,6.80
2023-02-18T09:05:42.755Z,6.80
2023-02-18T09:08:10.782Z,6.80
2023-02-18T09:10:39.932Z,6.82
2023-02-18T09:13:07.773Z,6.82
2023-02-18T09:15:36.039Z,6.90
2023-02-18T09:18:04.243Z,6.90
2023-02-18T09:20:32.311Z,6.90
2023-02-18T09:23:01.886Z,6.90
2023-02-18T09:25:29.882Z,6.90
2023-02-18T09:27:57.832Z,6.90
2023-02-18T09:30:25.866Z,6.90
2023-02-18T09:32:54.010Z,6.90
2023-02-18T09:35:21.813Z,6.90
2023-02-18T09:37:49.579Z,6.90
2023-02-18T09:40:32.985Z,6.90
2023-02-18T09:43:01.061Z,6.90
2023-02-18T09:45:29.102Z,6.90
2023-02-18T09:47:56.986Z,6.90
2023-02-18T09:50:33.504Z,6.82
2023-02-18T09:53:03.629Z,6.80
2023-02-18T09:55:36.422Z,6.70
2023-02-18T09:58:29.794Z,6.70
2023-02-18T10:01:16.075Z,6.70
2023-02-18T10:03:44.488Z,6.66
2023-02-18T10:06:22.768Z,6.60
2023-02-18T10:08:52.463Z,6.60
2023-02-18T10:11:38.393Z,6.60
2023-02-18T10:14:11.240Z,6.60
2023-02-18T10:16:39.376Z,6.70
2023-02-18T10:19:26.334Z,6.60
2023-02-18T10:21:54.595Z,6.68
2023-02-18T10:24:30.161Z,6.70
2023-02-18T10:26:58.642Z,6.74
2023-02-18T10:29:27.244Z,6.82
2023-02-18T10:32:19.167Z,6.90
2023-02-18T10:35:02.636Z,7.00
2023-02-18T10:38:11.992Z,7.00
2023-02-18T10:41:10.489Z,7.12
2023-02-18T10:43:46.998Z,7.24
2023-02-18T10:46:37.970Z,7.36
2023-02-18T10:49:50.691Z,7.48
2023-02-18T10:52:21.143Z,7.50
2023-02-18T10:55:00.348Z,7.60
2023-02-18T10:57:29.262Z,7.70
2023-02-18T11:00:01.871Z,7.78
2023-02-18T11:02:32.672Z,7.90
2023-02-18T11:05:02.195Z,7.92
2023-02-18T11:07:33.888Z,8.00
2023-02-18T11:10:14.636Z,8.10
2023-02-18T11:12:57.890Z,8.08
2023-02-18T11:15:26.968Z,8.10
2023-02-18T11:17:57.347Z,8.10
2023-02-18T11:20:33.733Z,8.20
2023-02-18T11:23:07.608Z,8.20
2023-02-18T11:25:37.916Z,8.22
2023-02-18T11:28:18.108Z,8.30
2023-02-18T11:30:48.831Z,8.30
2023-02-18T11:33:21.747Z,8.30
2023-02-18T11:35:54.871Z,8.30
2023-02-18T11:38:37.170Z,8.30
2023-02-18T11:41:11.989Z,8.30
2023-02-18T11:43:46.678Z,8.30
2023-02-18T11:46:21.159Z,8.40
2023-02-18T11:48:50.047Z,8.40
2023-02-18T11:51:39.240Z,8.40
2023-02-18T11:54:30.431Z,8.48
2023-02-18T11:57:12.031Z,8.60
2023-02-18T11:59:40.943Z,8.70
2023-02-18T12:02:12.134Z,8.78
2023-02-18T12:04:51.283Z,8.80
2023-02-18T12:07:43.927Z,8.80
2023-02-18T12:10:19.829Z,8.90
2023-02-18T12:13:11.612Z,8.90
2023-02-18T12:16:12.154Z,8.90
2023-02-18T12:18:43.692Z,9.00
2023-02-18T12:21:36.239Z,9.00
2023-02-18T12:24:13.337Z,8.90
2023-02-18T12:26:56.716Z,8.90
2023-02-18T12:30:03.254Z,8.80
2023-02-18T12:33:04.972Z,8.70
2023-02-18T12:35:46.033Z,8.70
2023-02-18T12:38:52.121Z,8.60
2023-02-18T12:41:33.918Z,8.60
2023-02-18T12:44:17.733Z,8.52
2023-02-18T12:46:56.583Z,8.50
2023-02-18T12:49:33.142Z,8.50
2023-02-18T12:52:42.463Z,8.40
2023-02-18T12:55:42.407Z,8.40
2023-02-18T12:58:32.620Z,8.40
2023-02-18T13:01:22.385Z,8.40
2023-02-18T13:04:02.055Z,8.42
2023-02-18T13:06:39.827Z,8.50
2023-02-18T13:09:33.826Z,8.52
2023-02-18T13:12:15.095Z,8.50
2023-02-18T13:15:00.906Z,8.50
2023-02-18T13:17:33.291Z,8.50
2023-02-18T13:20:35.505Z,8.64
2023-02-18T13:23:03.555Z,8.70
2023-02-18T13:25:38.201Z,8.50
2023-02-18T13:28:38.528Z,8.40
2023-02-18T13:31:28.573Z,8.20
2023-02-18T13:34:12.743Z,8.10
2023-02-18T13:36:54.120Z,7.90
2023-02-18T13:39:23.657Z,7.84
2023-02-18T13:41:52.788Z,7.80
2023-02-18T13:44:23.402Z,7.90
2023-02-18T13:46:56.685Z,7.88
2023-02-18T13:49:33.454Z,7.80
2023-02-18T13:52:02.413Z,7.60
2023-02-18T13:54:46.376Z,7.50
2023-02-18T13:57:22.219Z,7.30
2023-02-18T13:59:56.566Z,7.14
2023-02-18T14:02:27.378Z,7.02
2023-02-18T14:04:57.632Z,7.00
2023-02-18T14:07:41.695Z,7.00
2023-02-18T14:10:18.537Z,6.70
2023-02-18T14:12:51.905Z,6.56
2023-02-18T14:15:20.094Z,6.40
2023-02-18T14:18:13.638Z,6.30
2023-02-18T14:20:46.914Z,6.02
2023-02-18T14:23:21.177Z,5.90
2023-02-18T14:26:09.451Z,5.88
2023-02-18T14:28:47.412Z,5.78
2023-02-18T14:31:22.203Z,5.70
2023-02-18T14:34:31.986Z,5.60
2023-02-18T14:37:22.208Z,5.50
2023-02-18T14:40:06.613Z,5.42
2023-02-18T14:43:01.759Z,5.40
2023-02-18T14:45:47.515Z,5.30
2023-02-18T14:48:57.805Z,5.30
2023-02-18T14:51:26.485Z,5.20
2023-02-18T14:53:54.443Z,5.20
2023-02-18T14:56:22.445Z,5.20
2023-02-18T14:58:54.319Z,5.10
2023-02-18T15:01:29.818Z,5.10
2023-02-18T15:03:58.138Z,5.08
2023-02-18T15:06:31.885Z,5.00
2023-02-18T15:09:01.572Z,5.00
2023-02-18T15:11:42.378Z,4.90
2023-02-18T15:14:42.681Z,4.90
2023-02-18T15:17:15.721Z,4.90
2023-02-18T15:19:53.029Z,4.82
2023-02-18T15:22:27.002Z,4.80
2023-02-18T15:24:55.460Z,4.80
2023-02-18T15:27:30.992Z,4.80
2023-02-18T15:30:13.544Z,4.80
2023-02-18T15:32:52.085Z,4.82
2023-02-18T15:35:23.100Z,4.80
2023-02-18T15:37:55.946Z,4.88
2023-02-18T15:40:27.822Z,4.90
2023-02-18T15:42:59.083Z,4.90
2023-02-18T15:45:39.151Z,4.90
2023-02-18T15:48:07.302Z,4.90
2023-02-18T15:50:39.003Z,4.90
2023-02-18T15:53:16.396Z,4.86
2023-02-18T15:55:47.945Z,4.80
2023-02-18T15:58:26.754Z,4.80
2023-02-18T16:01:00.606Z,4.80
2023-02-18T16:03:41.539Z,4.80
2023-02-18T16:06:23.337Z,4.80
2023-02-18T16:09:06.808Z,4.80
2023-02-18T16:11:39.365Z,4.80
2023-02-18T16:14:07.553Z,4.80
2023-02-18T16:16:37.441Z,4.80
2023-02-18T16:19:05.503Z,4.80
2023-02-18T16:21:40.808Z,4.80
2023-02-18T16:24:26.867Z,4.80
2023-02-18T16:26:58.567Z,4.80
2023-02-18T16:29:40.841Z,4.80
2023-02-18T16:32:08.970Z,4.80
2023-02-18T16:34:38.182Z,4.80
2023-02-18T16:37:24.817Z,4.82
2023-02-18T16:39:55.128Z,4.80
2023-02-18T16:42:23.123Z,4.80
2023-02-18T16:44:52.021Z,4.80
2023-02-18T16:47:20.219Z,4.80
2023-02-18T16:49:49.886Z,4.80
2023-02-18T16:52:19.309Z,4.80
2023-02-18T16:54:50.434Z,4.80
2023-02-18T16:57:18.581Z,4.80
2023-02-18T16:59:46.669Z,4.80
2023-02-18T17:02:21.169Z,4.78
2023-02-18T17:04:49.050Z,4.70
2023-02-18T17:07:17.060Z,4.72
2023-02-18T17:09:45.097Z,4.78
2023-02-18T17:12:14.073Z,4.76
2023-02-18T17:14:43.843Z,4.72
2023-02-18T17:17:12.580Z,4.76
2023-02-18T17:19:40.495Z,4.70
2023-02-18T17:22:10.370Z,4.72
2023-02-18T17:24:38.332Z,4.78
2023-02-18T17:27:06.464Z,4.74
2023-02-18T17:29:34.380Z,4.78
2023-02-18T17:32:02.768Z,4.80
2023-02-18T17:34:32.595Z,4.80
2023-02-18T17:37:00.641Z,4.80
2023-02-18T17:39:29.759Z,4.80
2023-02-18T17:41:57.658Z,4.80
2023-02-18T17:44:26.207Z,4.80
2023-02-18T17:46:55.020Z,4.78
2023-02-18T17:49:23.353Z,4.78
2023-02-18T17:51:52.655Z,4.78
2023-02-18T17:54:22.873Z,4.74
2023-02-18T17:56:50.785Z,4.74
2023-02-18T17:59:18.804Z,4.72
2023-02-18T18:01:46.968Z,4.70
2023-02-18T18:04:16.978Z,4.72
2023-02-18T18:06:47.009Z,4.70
2023-02-18T18:09:15.172Z,4.70
2023-02-18T18:11:43.348Z,4.70
2023-02-18T18:14:13.814Z,4.70
2023-02-18T18:16:41.765Z,4.70
2023-02-18T18:19:10.186Z,4.70
2023-02-18T18:21:38.205Z,4.70
2023-02-18T18:24:06.667Z,4.70
2023-02-18T18:26:34.733Z,4.70
2023-02-18T18:29:02.707Z,4.70
2023-02-18T18:31:32.447Z,4.70
2023-02-18T18:34:00.399Z,4.70
2023-02-18T18:36:28.258Z,4.70
2023-02-18T18:38:56.199Z,4.70
2023-02-18T18:41:24.344Z,4.70
2023-02-18T18:43:52.166Z,4.70
2023-02-18T18:46:20.245Z,4.70
2023-02-18T18:52:14.506Z,4.68
2023-02-18T18:54:45.590Z,4.70
2023-02-18T18:57:15.325Z,4.64
2023-02-18T18:59:43.139Z,4.60
2023-02-18T19:02:15.985Z,4.60
2023-02-18T19:04:44.036Z,4.60
2023-02-18T19:07:12.074Z,4.60
2023-02-18T19:09:40.304Z,4.60
2023-02-18T19:12:10.499Z,4.50
2023-02-18T19:14:38.538Z,4.50
2023-02-18T19:17:06.858Z,4.50
2023-02-18T19:19:35.316Z,4.40
2023-02-18T19:22:03.368Z,4.40
2023-02-18T19:24:31.439Z,4.30
2023-02-18T19:26:59.499Z,4.30
2023-02-18T19:29:27.425Z,4.30
2023-02-18T19:31:55.474Z,4.30
2023-02-18T19:34:23.222Z,4.30
2023-02-18T19:36:51.116Z,4.30
2023-02-18T19:39:19.163Z,4.30
2023-02-18T19:41:47.085Z,4.30
2023-02-18T19:44:15.015Z,4.30
2023-02-18T19:46:42.985Z,4.30
2023-02-18T19:49:11.016Z,4.30
2023-02-18T19:51:38.844Z,4.30
2023-02-18T19:54:07.065Z,4.30
2023-02-18T19:56:35.086Z,4.30
2023-02-18T19:59:03.133Z,4.30
2023-02-18T20:01:31.408Z,4.28
2023-02-18T20:04:00.307Z,4.30
2023-02-18T20:06:28.268Z,4.26
2023-02-18T20:08:56.304Z,4.30
2023-02-18T20:11:24.245Z,4.30
2023-02-18T20:13:52.145Z,4.30
2023-02-18T20:16:20.230Z,4.30
2023-02-18T20:18:48.228Z,4.30
2023-02-18T20:21:16.089Z,4.30
2023-02-18T20:23:44.302Z,4.28
2023-02-18T20:26:12.877Z,4.28
2023-02-18T20:28:41.195Z,4.30
2023-02-18T20:31:11.868Z,4.30
2023-02-18T20:33:40.256Z,4.28
2023-02-18T20:36:09.037Z,4.20
2023-02-18T20:38:37.523Z,4.20
2023-02-18T20:41:11.597Z,4.20
2023-02-18T20:43:40.951Z,4.20
2023-02-18T20:46:12.514Z,4.20
2023-02-18T20:48:40.451Z,4.20
2023-02-18T20:51:20.100Z,4.20
2023-02-18T20:53:48.338Z,4.18
2023-02-18T20:56:16.252Z,4.18
2023-02-18T20:58:44.378Z,4.20
2023-02-18T21:01:14.336Z,4.20
2023-02-18T21:03:43.255Z,4.20
2023-02-18T21:06:14.004Z,4.16
2023-02-18T21:08:43.102Z,4.18
2023-02-18T21:11:17.636Z,4.14
2023-02-18T21:13:47.420Z,4.10
2023-02-18T21:16:15.912Z,4.10
2023-02-18T21:18:43.964Z,4.06
2023-02-18T21:21:12.569Z,4.00
2023-02-18T21:23:41.179Z,4.00
2023-02-18T21:26:15.076Z,4.00
2023-02-18T21:28:46.212Z,4.00
2023-02-18T21:31:25.899Z,4.00
2023-02-18T21:33:54.254Z,3.98
2023-02-18T21:36:22.395Z,3.94
2023-02-18T21:38:59.449Z,3.90
2023-02-18T21:41:27.936Z,3.90
2023-02-18T21:43:55.801Z,3.90
2023-02-18T21:46:30.091Z,3.90
2023-02-18T21:49:09.968Z,3.90
2023-02-18T21:52:02.002Z,3.90
2023-02-18T21:54:46.484Z,3.90
2023-02-18T21:57:19.839Z,3.90
2023-02-18T21:59:48.374Z,3.90
2023-02-18T22:02:35.095Z,3.84
2023-02-18T22:05:03.245Z,3.82
2023-02-18T22:07:31.385Z,3.84
2023-02-18T22:09:59.522Z,3.80
2023-02-18T22:12:27.435Z,3.80
2023-02-18T22:14:55.337Z,3.80
2023-02-18T22:17:23.204Z,3.80
2023-02-18T22:19:51.038Z,3.76
2023-02-18T22:22:19.085Z,3.70
2023-02-18T22:24:47.124Z,3.70
2023-02-18T22:27:15.445Z,3.70
2023-02-18T22:29:43.615Z,3.70
2023-02-18T22:32:11.442Z,3.70
2023-02-18T22:34:40.256Z,3.66
2023-02-18T22:37:08.272Z,3.60
2023-02-18T22:39:36.207Z,3.60
2023-02-18T22:42:04.891Z,3.60
2023-02-18T22:44:32.809Z,3.60
2023-02-18T22:47:00.731Z,3.60
2023-02-18T22:49:28.763Z,3.60
2023-02-18T22:51:56.705Z,3.60
2023-02-18T22:54:24.834Z,3.60
2023-02-18T22:56:53.355Z,3.60
2023-02-18T22:59:21.257Z,3.60
2023-02-18T23:01:49.826Z,3.60
2023-02-18T23:04:19.929Z,3.60
2023-02-18T23:06:48.619Z,3.60
2023-02-18T23:09:24.540Z,3.60
2023-02-18T23:11:54.312Z,3.62
2023-02-18T23:14:22.586Z,3.66
2023-02-18T23:17:12.387Z,3.70
2023-02-18T23:19:51.227Z,3.70
2023-02-18T23:22:33.234Z,3.70
2023-02-18T23:25:01.369Z,3.70
2023-02-18T23:27:29.600Z,3.70
2023-02-18T23:29:57.585Z,3.70
2023-02-18T23:32:27.864Z,3.70
2023-02-18T23:34:55.745Z,3.70
2023-02-18T23:37:44.108Z,3.70
2023-02-18T23:40:13.994Z,3.70
2023-02-18T23:42:42.040Z,3.70
2023-02-18T23:45:10.007Z,3.70
2023-02-18T23:47:37.900Z,3.70
2023-02-18T23:50:06.899Z,3.70
2023-02-18T23:52:34.702Z,3.70
2023-02-18T23:55:02.734Z,3.70
2023-02-18T23:57:33.743Z,3.70
